sensor_id;sensor_type;location;lat;lon;timestamp;temperature;humidity
34837;DHT22;21053;50.848;4.652;2023-07-31T00:01:29;17.90;99.90
34837;DHT22;21053;50.848;4.652;2023-07-31T00:04:20;17.90;99.90
34837;DHT22;21053;50.848;4.652;2023-07-31T00:06:53;17.90;99.90
34837;DHT22;21053;50.848;4.652;2023-07-31T00:09:47;17.90;99.90
34837;DHT22;21053;50.848;4.652;2023-07-31T00:12:16;18.00;99.90
34837;DHT22;21053;50.848;4.652;2023-07-31T00:14:45;18.00;99.90
34837;DHT22;21053;50.848;4.652;2023-07-31T00:17:49;17.90;99.90
34837;DHT22;21053;50.848;4.652;2023-07-31T00:20:35;18.00;99.90
34837;DHT22;21053;50.848;4.652;2023-07-31T00:26:53;18.10;99.90
34837;DHT22;21053;50.848;4.652;2023-07-31T00:29:22;18.20;99.90
34837;DHT22;21053;50.848;4.652;2023-07-31T00:32:05;18.10;99.90
34837;DHT22;21053;50.848;4.652;2023-07-31T00:34:54;18.10;99.90
34837;DHT22;21053;50.848;4.652;2023-07-31T00:37:35;18.00;99.90
34837;DHT22;21053;50.848;4.652;2023-07-31T00:40:19;17.90;99.90
34837;DHT22;21053;50.848;4.652;2023-07-31T00:42:57;18.00;99.90
34837;DHT22;21053;50.848;4.652;2023-07-31T00:45:30;18.20;99.90
34837;DHT22;21053;50.848;4.652;2023-07-31T00:48:00;18.20;99.90
34837;DHT22;21053;50.848;4.652;2023-07-31T00:50:47;18.20;99.90
34837;DHT22;21053;50.848;4.652;2023-07-31T00:53:18;18.20;99.90
34837;DHT22;21053;50.848;4.652;2023-07-31T00:55:51;18.10;99.90
34837;DHT22;21053;50.848;4.652;2023-07-31T00:58:21;18.20;99.90
34837;DHT22;21053;50.848;4.652;2023-07-31T01:00:46;18.10;99.90
34837;DHT22;21053;50.848;4.652;2023-07-31T01:03:28;18.00;99.90
34837;DHT22;21053;50.848;4.652;2023-07-31T01:06:25;18.10;99.90
34837;DHT22;21053;50.848;4.652;2023-07-31T01:09:03;18.10;99.90
34837;DHT22;21053;50.848;4.652;2023-07-31T01:11:38;18.10;99.90
34837;DHT22;21053;50.848;4.652;2023-07-31T01:14:06;18.10;99.90
34837;DHT22;21053;50.848;4.652;2023-07-31T01:16:35;18.10;99.90
34837;DHT22;21053;50.848;4.652;2023-07-31T01:19:00;18.10;99.90
34837;DHT22;21053;50.848;4.652;2023-07-31T01:28:07;18.10;99.90
34837;DHT22;21053;50.848;4.652;2023-07-31T01:30:48;18.00;99.90
34837;DHT22;21053;50.848;4.652;2023-07-31T01:33:18;18.10;99.90
34837;DHT22;21053;50.848;4.652;2023-07-31T01:35:59;18.10;99.90
34837;DHT22;21053;50.848;4.652;2023-07-31T01:38:28;18.00;99.90
34837;DHT22;21053;50.848;4.652;2023-07-31T01:40:57;18.00;99.90
34837;DHT22;21053;50.848;4.652;2023-07-31T01:43:22;18.00;99.90
34837;DHT22;21053;50.848;4.652;2023-07-31T01:45:53;18.10;99.90
34837;DHT22;21053;50.848;4.652;2023-07-31T01:48:22;18.20;99.90
34837;DHT22;21053;50.848;4.652;2023-07-31T01:50:50;18.30;99.90
34837;DHT22;21053;50.848;4.652;2023-07-31T01:53:18;18.30;99.90
34837;DHT22;21053;50.848;4.652;2023-07-31T01:55:52;18.30;99.90
34837;DHT22;21053;50.848;4.652;2023-07-31T01:58:20;18.40;99.90
34837;DHT22;21053;50.848;4.652;2023-07-31T02:00:47;18.30;99.90
34837;DHT22;21053;50.848;4.652;2023-07-31T02:03:16;18.20;99.90
34837;DHT22;21053;50.848;4.652;2023-07-31T02:06:03;18.20;99.90
34837;DHT22;21053;50.848;4.652;2023-07-31T02:08:28;18.20;99.90
34837;DHT22;21053;50.848;4.652;2023-07-31T02:10:57;18.20;99.90
34837;DHT22;21053;50.848;4.652;2023-07-31T02:13:26;18.30;99.90
34837;DHT22;21053;50.848;4.652;2023-07-31T02:19:14;18.20;99.90
34837;DHT22;21053;50.848;4.652;2023-07-31T02:21:46;18.30;99.90
34837;DHT22;21053;50.848;4.652;2023-07-31T02:24:33;18.40;99.90
34837;DHT22;21053;50.848;4.652;2023-07-31T02:27:00;18.20;99.90
34837;DHT22;21053;50.848;4.652;2023-07-31T02:29:29;18.10;99.90
34837;DHT22;21053;50.848;4.652;2023-07-31T02:31:56;18.00;99.90
34837;DHT22;21053;50.848;4.652;2023-07-31T02:34:25;18.10;99.90
34837;DHT22;21053;50.848;4.652;2023-07-31T02:36:57;18.20;99.90
34837;DHT22;21053;50.848;4.652;2023-07-31T02:39:23;18.20;99.90
34837;DHT22;21053;50.848;4.652;2023-07-31T02:41:51;18.20;99.90
34837;DHT22;21053;50.848;4.652;2023-07-31T02:44:18;18.20;99.90
34837;DHT22;21053;50.848;4.652;2023-07-31T02:46:46;18.30;99.90
34837;DHT22;21053;50.848;4.652;2023-07-31T02:49:12;18.30;99.90
34837;DHT22;21053;50.848;4.652;2023-07-31T02:51:57;18.20;99.90
34837;DHT22;21053;50.848;4.652;2023-07-31T02:54:24;18.20;99.90
34837;DHT22;21053;50.848;4.652;2023-07-31T02:56:51;18.10;99.90
34837;DHT22;21053;50.848;4.652;2023-07-31T02:59:20;18.20;99.90
34837;DHT22;21053;50.848;4.652;2023-07-31T03:01:48;18.20;99.90
34837;DHT22;21053;50.848;4.652;2023-07-31T03:04:14;18.10;99.90
34837;DHT22;21053;50.848;4.652;2023-07-31T03:06:42;18.10;99.90
34837;DHT22;21053;50.848;4.652;2023-07-31T03:15:52;18.10;99.90
34837;DHT22;21053;50.848;4.652;2023-07-31T03:21:42;18.20;99.90
34837;DHT22;21053;50.848;4.652;2023-07-31T03:24:13;18.20;99.90
34837;DHT22;21053;50.848;4.652;2023-07-31T03:26:51;18.10;99.90
34837;DHT22;21053;50.848;4.652;2023-07-31T03:29:31;18.10;99.90
34837;DHT22;21053;50.848;4.652;2023-07-31T03:32:01;18.20;99.90
34837;DHT22;21053;50.848;4.652;2023-07-31T03:34:29;18.10;99.90
34837;DHT22;21053;50.848;4.652;2023-07-31T03:37:00;18.00;99.90
34837;DHT22;21053;50.848;4.652;2023-07-31T03:39:33;18.10;99.90
34837;DHT22;21053;50.848;4.652;2023-07-31T03:42:01;18.20;99.90
34837;DHT22;21053;50.848;4.652;2023-07-31T03:44:34;18.20;99.90
34837;DHT22;21053;50.848;4.652;2023-07-31T03:47:03;18.30;99.90
34837;DHT22;21053;50.848;4.652;2023-07-31T03:49:32;18.30;99.90
34837;DHT22;21053;50.848;4.652;2023-07-31T03:52:00;18.20;99.90
34837;DHT22;21053;50.848;4.652;2023-07-31T03:54:29;18.10;99.90
34837;DHT22;21053;50.848;4.652;2023-07-31T03:57:23;18.10;99.90
34837;DHT22;21053;50.848;4.652;2023-07-31T03:59:51;18.20;99.90
34837;DHT22;21053;50.848;4.652;2023-07-31T04:02:42;18.20;99.90
34837;DHT22;21053;50.848;4.652;2023-07-31T04:05:13;18.30;99.90
34837;DHT22;21053;50.848;4.652;2023-07-31T04:07:42;18.10;99.90
34837;DHT22;21053;50.848;4.652;2023-07-31T04:10:35;17.90;99.90
34837;DHT22;21053;50.848;4.652;2023-07-31T04:13:07;17.90;99.90
34837;DHT22;21053;50.848;4.652;2023-07-31T04:15:34;17.90;99.90
34837;DHT22;21053;50.848;4.652;2023-07-31T04:18:04;18.00;99.90
34837;DHT22;21053;50.848;4.652;2023-07-31T04:20:32;18.00;99.90
34837;DHT22;21053;50.848;4.652;2023-07-31T04:23:01;18.00;99.90
34837;DHT22;21053;50.848;4.652;2023-07-31T04:25:28;18.00;99.90
34837;DHT22;21053;50.848;4.652;2023-07-31T04:28:32;18.10;99.90
34837;DHT22;21053;50.848;4.652;2023-07-31T04:31:22;18.00;99.90
34837;DHT22;21053;50.848;4.652;2023-07-31T04:33:47;17.90;99.90
34837;DHT22;21053;50.848;4.652;2023-07-31T04:38:42;17.90;99.90
34837;DHT22;21053;50.848;4.652;2023-07-31T04:41:12;17.90;99.90
34837;DHT22;21053;50.848;4.652;2023-07-31T04:43:58;18.00;99.90
34837;DHT22;21053;50.848;4.652;2023-07-31T04:46:29;18.00;99.90
34837;DHT22;21053;50.848;4.652;2023-07-31T04:48:57;18.00;99.90
34837;DHT22;21053;50.848;4.652;2023-07-31T04:51:23;18.00;99.90
34837;DHT22;21053;50.848;4.652;2023-07-31T04:53:51;18.00;99.90
34837;DHT22;21053;50.848;4.652;2023-07-31T04:56:20;17.90;99.90
34837;DHT22;21053;50.848;4.652;2023-07-31T04:58:45;18.00;99.90
34837;DHT22;21053;50.848;4.652;2023-07-31T05:01:11;17.90;99.90
34837;DHT22;21053;50.848;4.652;2023-07-31T05:03:39;17.90;99.90
34837;DHT22;21053;50.848;4.652;2023-07-31T05:06:06;17.90;99.90
34837;DHT22;21053;50.848;4.652;2023-07-31T05:08:31;17.90;99.90
34837;DHT22;21053;50.848;4.652;2023-07-31T05:10:58;18.00;99.90
34837;DHT22;21053;50.848;4.652;2023-07-31T05:13:26;18.00;99.90
34837;DHT22;21053;50.848;4.652;2023-07-31T05:15:55;17.80;99.90
34837;DHT22;21053;50.848;4.652;2023-07-31T05:18:20;17.90;99.90
34837;DHT22;21053;50.848;4.652;2023-07-31T05:20:49;17.90;99.90
34837;DHT22;21053;50.848;4.652;2023-07-31T05:23:18;17.80;99.90
34837;DHT22;21053;50.848;4.652;2023-07-31T05:26:06;17.80;99.90
34837;DHT22;21053;50.848;4.652;2023-07-31T05:28:41;17.80;99.90
34837;DHT22;21053;50.848;4.652;2023-07-31T05:31:07;17.90;99.90
34837;DHT22;21053;50.848;4.652;2023-07-31T05:33:36;17.80;99.90
34837;DHT22;21053;50.848;4.652;2023-07-31T05:36:12;17.60;99.90
34837;DHT22;21053;50.848;4.652;2023-07-31T05:38:38;17.60;99.90
34837;DHT22;21053;50.848;4.652;2023-07-31T05:41:05;17.70;99.90
34837;DHT22;21053;50.848;4.652;2023-07-31T05:43:37;17.70;99.90
34837;DHT22;21053;50.848;4.652;2023-07-31T05:46:02;17.60;99.90
34837;DHT22;21053;50.848;4.652;2023-07-31T05:48:31;17.70;99.90
34837;DHT22;21053;50.848;4.652;2023-07-31T05:51:00;17.70;99.90
34837;DHT22;21053;50.848;4.652;2023-07-31T05:53:29;17.80;99.90
34837;DHT22;21053;50.848;4.652;2023-07-31T05:55:58;17.60;99.90
34837;DHT22;21053;50.848;4.652;2023-07-31T05:58:24;17.50;99.90
34837;DHT22;21053;50.848;4.652;2023-07-31T06:00:51;17.60;99.90
34837;DHT22;21053;50.848;4.652;2023-07-31T06:03:19;17.50;99.90
34837;DHT22;21053;50.848;4.652;2023-07-31T06:05:48;17.50;99.90
34837;DHT22;21053;50.848;4.652;2023-07-31T06:08:14;17.60;99.90
34837;DHT22;21053;50.848;4.652;2023-07-31T06:10:42;17.50;99.90
34837;DHT22;21053;50.848;4.652;2023-07-31T06:13:11;17.40;99.90
34837;DHT22;21053;50.848;4.652;2023-07-31T06:15:43;17.40;99.90
34837;DHT22;21053;50.848;4.652;2023-07-31T06:18:10;17.50;99.90
34837;DHT22;21053;50.848;4.652;2023-07-31T06:20:39;17.50;99.90
34837;DHT22;21053;50.848;4.652;2023-07-31T06:23:06;17.60;99.90
34837;DHT22;21053;50.848;4.652;2023-07-31T06:25:37;17.40;99.90
34837;DHT22;21053;50.848;4.652;2023-07-31T06:28:08;17.40;99.90
34837;DHT22;21053;50.848;4.652;2023-07-31T06:30:37;17.40;99.90
34837;DHT22;21053;50.848;4.652;2023-07-31T06:33:06;17.50;99.90
34837;DHT22;21053;50.848;4.652;2023-07-31T06:35:33;17.40;99.90
34837;DHT22;21053;50.848;4.652;2023-07-31T06:38:05;17.30;99.90
34837;DHT22;21053;50.848;4.652;2023-07-31T06:40:41;17.50;99.90
34837;DHT22;21053;50.848;4.652;2023-07-31T06:43:07;17.60;99.90
34837;DHT22;21053;50.848;4.652;2023-07-31T06:45:38;17.70;99.90
34837;DHT22;21053;50.848;4.652;2023-07-31T06:48:04;17.80;99.90
34837;DHT22;21053;50.848;4.652;2023-07-31T06:50:36;17.70;99.90
34837;DHT22;21053;50.848;4.652;2023-07-31T06:53:05;17.70;99.90
34837;DHT22;21053;50.848;4.652;2023-07-31T06:55:34;17.80;99.90
34837;DHT22;21053;50.848;4.652;2023-07-31T06:58:02;17.70;99.90
34837;DHT22;21053;50.848;4.652;2023-07-31T07:00:31;17.60;99.90
34837;DHT22;21053;50.848;4.652;2023-07-31T07:03:00;17.70;99.90
34837;DHT22;21053;50.848;4.652;2023-07-31T07:05:26;17.70;99.90
34837;DHT22;21053;50.848;4.652;2023-07-31T07:07:55;17.70;99.90
34837;DHT22;21053;50.848;4.652;2023-07-31T07:10:22;17.80;99.90
34837;DHT22;21053;50.848;4.652;2023-07-31T07:12:50;17.90;99.90
34837;DHT22;21053;50.848;4.652;2023-07-31T07:15:19;17.80;99.90
34837;DHT22;21053;50.848;4.652;2023-07-31T07:17:45;17.90;99.90
34837;DHT22;21053;50.848;4.652;2023-07-31T07:20:17;17.90;99.90
34837;DHT22;21053;50.848;4.652;2023-07-31T07:22:46;18.00;99.90
34837;DHT22;21053;50.848;4.652;2023-07-31T07:25:14;18.00;99.90
34837;DHT22;21053;50.848;4.652;2023-07-31T07:27:43;18.00;99.90
34837;DHT22;21053;50.848;4.652;2023-07-31T07:30:13;18.10;99.90
34837;DHT22;21053;50.848;4.652;2023-07-31T07:32:43;18.10;99.90
34837;DHT22;21053;50.848;4.652;2023-07-31T07:35:26;18.10;99.90
34837;DHT22;21053;50.848;4.652;2023-07-31T07:37:53;18.30;99.90
34837;DHT22;21053;50.848;4.652;2023-07-31T07:40:20;18.30;99.90
34837;DHT22;21053;50.848;4.652;2023-07-31T07:42:50;18.40;99.90
34837;DHT22;21053;50.848;4.652;2023-07-31T07:45:18;18.30;99.90
34837;DHT22;21053;50.848;4.652;2023-07-31T07:47:46;18.30;99.90
34837;DHT22;21053;50.848;4.652;2023-07-31T07:50:15;18.20;99.90
34837;DHT22;21053;50.848;4.652;2023-07-31T07:52:44;18.20;99.90
34837;DHT22;21053;50.848;4.652;2023-07-31T07:55:11;18.20;99.90
34837;DHT22;21053;50.848;4.652;2023-07-31T07:57:36;18.30;99.90
34837;DHT22;21053;50.848;4.652;2023-07-31T08:00:02;18.40;99.90
34837;DHT22;21053;50.848;4.652;2023-07-31T08:02:31;18.50;99.90
34837;DHT22;21053;50.848;4.652;2023-07-31T08:05:03;18.40;99.90
34837;DHT22;21053;50.848;4.652;2023-07-31T08:07:32;18.40;99.90
34837;DHT22;21053;50.848;4.652;2023-07-31T08:10:01;18.50;99.90
34837;DHT22;21053;50.848;4.652;2023-07-31T08:12:33;18.60;99.90
34837;DHT22;21053;50.848;4.652;2023-07-31T08:15:01;18.60;99.90
34837;DHT22;21053;50.848;4.652;2023-07-31T08:17:29;18.60;99.90
34837;DHT22;21053;50.848;4.652;2023-07-31T08:19:58;18.70;99.90
34837;DHT22;21053;50.848;4.652;2023-07-31T08:22:24;18.60;99.90
34837;DHT22;21053;50.848;4.652;2023-07-31T08:24:51;18.60;99.90
34837;DHT22;21053;50.848;4.652;2023-07-31T08:29:42;18.60;99.90
34837;DHT22;21053;50.848;4.652;2023-07-31T08:32:10;18.60;99.90
34837;DHT22;21053;50.848;4.652;2023-07-31T08:34:36;18.70;99.90
34837;DHT22;21053;50.848;4.652;2023-07-31T08:37:03;18.70;99.90
34837;DHT22;21053;50.848;4.652;2023-07-31T08:39:29;18.70;99.90
34837;DHT22;21053;50.848;4.652;2023-07-31T08:41:59;18.90;99.90
34837;DHT22;21053;50.848;4.652;2023-07-31T08:44:29;18.70;99.90
34837;DHT22;21053;50.848;4.652;2023-07-31T08:46:56;18.60;99.90
34837;DHT22;21053;50.848;4.652;2023-07-31T08:49:26;18.60;99.90
34837;DHT22;21053;50.848;4.652;2023-07-31T08:51:52;18.50;99.90
34837;DHT22;21053;50.848;4.652;2023-07-31T08:54:31;18.50;99.90
34837;DHT22;21053;50.848;4.652;2023-07-31T08:57:01;18.50;99.90
34837;DHT22;21053;50.848;4.652;2023-07-31T08:59:31;18.60;99.90
34837;DHT22;21053;50.848;4.652;2023-07-31T09:02:02;18.70;99.90
34837;DHT22;21053;50.848;4.652;2023-07-31T09:04:31;18.40;99.90
34837;DHT22;21053;50.848;4.652;2023-07-31T09:07:01;18.50;99.90
34837;DHT22;21053;50.848;4.652;2023-07-31T09:09:31;18.50;99.90
34837;DHT22;21053;50.848;4.652;2023-07-31T09:12:00;18.60;99.90
34837;DHT22;21053;50.848;4.652;2023-07-31T09:16:57;18.70;99.90
34837;DHT22;21053;50.848;4.652;2023-07-31T09:19:35;18.60;99.90
34837;DHT22;21053;50.848;4.652;2023-07-31T09:24:36;18.50;99.90
34837;DHT22;21053;50.848;4.652;2023-07-31T09:27:03;18.40;99.90
34837;DHT22;21053;50.848;4.652;2023-07-31T09:29:29;18.60;99.90
34837;DHT22;21053;50.848;4.652;2023-07-31T09:31:57;18.70;99.90
34837;DHT22;21053;50.848;4.652;2023-07-31T09:34:51;18.80;99.90
34837;DHT22;21053;50.848;4.652;2023-07-31T09:37:20;18.80;99.90
34837;DHT22;21053;50.848;4.652;2023-07-31T09:39:47;18.90;99.90
34837;DHT22;21053;50.848;4.652;2023-07-31T09:42:24;19.00;99.90
34837;DHT22;21053;50.848;4.652;2023-07-31T09:44:53;19.10;99.90
34837;DHT22;21053;50.848;4.652;2023-07-31T09:47:25;19.30;99.90
34837;DHT22;21053;50.848;4.652;2023-07-31T09:49:52;19.30;99.90
34837;DHT22;21053;50.848;4.652;2023-07-31T09:52:21;19.40;99.90
34837;DHT22;21053;50.848;4.652;2023-07-31T09:54:49;19.50;99.90
34837;DHT22;21053;50.848;4.652;2023-07-31T09:57:21;19.30;99.90
34837;DHT22;21053;50.848;4.652;2023-07-31T09:59:48;19.40;99.90
34837;DHT22;21053;50.848;4.652;2023-07-31T10:02:21;19.30;99.90
34837;DHT22;21053;50.848;4.652;2023-07-31T10:04:50;19.10;99.90
34837;DHT22;21053;50.848;4.652;2023-07-31T10:07:17;19.20;99.90
34837;DHT22;21053;50.848;4.652;2023-07-31T10:09:46;19.30;99.90
34837;DHT22;21053;50.848;4.652;2023-07-31T10:12:14;19.40;99.90
34837;DHT22;21053;50.848;4.652;2023-07-31T10:14:46;19.40;99.90
34837;DHT22;21053;50.848;4.652;2023-07-31T10:17:13;19.30;99.90
34837;DHT22;21053;50.848;4.652;2023-07-31T10:19:40;19.40;99.90
34837;DHT22;21053;50.848;4.652;2023-07-31T10:22:06;19.50;99.90
34837;DHT22;21053;50.848;4.652;2023-07-31T10:24:33;19.30;99.90
34837;DHT22;21053;50.848;4.652;2023-07-31T10:27:00;19.30;99.90
34837;DHT22;21053;50.848;4.652;2023-07-31T10:29:29;19.10;99.90
34837;DHT22;21053;50.848;4.652;2023-07-31T10:35:36;19.40;99.90
34837;DHT22;21053;50.848;4.652;2023-07-31T10:38:23;19.60;99.90
34837;DHT22;21053;50.848;4.652;2023-07-31T10:44:13;20.00;99.90
34837;DHT22;21053;50.848;4.652;2023-07-31T10:46:42;20.20;99.90
34837;DHT22;21053;50.848;4.652;2023-07-31T10:49:07;20.10;99.90
34837;DHT22;21053;50.848;4.652;2023-07-31T10:51:36;20.20;99.90
34837;DHT22;21053;50.848;4.652;2023-07-31T10:54:15;20.10;99.90
34837;DHT22;21053;50.848;4.652;2023-07-31T10:56:52;19.90;99.90
34837;DHT22;21053;50.848;4.652;2023-07-31T10:59:19;19.90;99.90
34837;DHT22;21053;50.848;4.652;2023-07-31T11:01:54;19.80;99.90
34837;DHT22;21053;50.848;4.652;2023-07-31T11:04:26;19.70;99.90
34837;DHT22;21053;50.848;4.652;2023-07-31T11:07:10;19.70;99.90
34837;DHT22;21053;50.848;4.652;2023-07-31T11:09:37;19.90;99.90
34837;DHT22;21053;50.848;4.652;2023-07-31T11:12:04;19.90;99.90
34837;DHT22;21053;50.848;4.652;2023-07-31T11:14:30;19.90;99.90
34837;DHT22;21053;50.848;4.652;2023-07-31T11:16:56;19.90;99.90
34837;DHT22;21053;50.848;4.652;2023-07-31T11:19:25;20.00;99.90
34837;DHT22;21053;50.848;4.652;2023-07-31T11:21:52;20.10;99.90
34837;DHT22;21053;50.848;4.652;2023-07-31T11:24:18;20.00;99.90
34837;DHT22;21053;50.848;4.652;2023-07-31T11:27:15;20.10;99.90
34837;DHT22;21053;50.848;4.652;2023-07-31T11:29:45;20.20;99.90
34837;DHT22;21053;50.848;4.652;2023-07-31T11:32:26;20.10;99.90
34837;DHT22;21053;50.848;4.652;2023-07-31T11:41:29;20.40;99.90
34837;DHT22;21053;50.848;4.652;2023-07-31T11:44:06;20.50;99.90
34837;DHT22;21053;50.848;4.652;2023-07-31T11:46:32;20.50;99.90
34837;DHT22;21053;50.848;4.652;2023-07-31T11:49:04;20.50;99.90
34837;DHT22;21053;50.848;4.652;2023-07-31T11:51:34;20.70;99.90
34837;DHT22;21053;50.848;4.652;2023-07-31T11:54:02;20.60;99.90
34837;DHT22;21053;50.848;4.652;2023-07-31T11:56:28;20.80;99.90
34837;DHT22;21053;50.848;4.652;2023-07-31T11:58:58;20.60;99.90
34837;DHT22;21053;50.848;4.652;2023-07-31T12:01:27;20.50;99.90
34837;DHT22;21053;50.848;4.652;2023-07-31T12:03:56;20.60;99.90
34837;DHT22;21053;50.848;4.652;2023-07-31T12:06:37;20.70;99.90
34837;DHT22;21053;50.848;4.652;2023-07-31T12:09:06;20.40;99.90
34837;DHT22;21053;50.848;4.652;2023-07-31T12:11:43;20.50;99.90
34837;DHT22;21053;50.848;4.652;2023-07-31T12:14:31;20.40;99.90
34837;DHT22;21053;50.848;4.652;2023-07-31T12:17:05;20.70;99.90
34837;DHT22;21053;50.848;4.652;2023-07-31T12:19:34;20.90;99.90
34837;DHT22;21053;50.848;4.652;2023-07-31T12:22:00;21.00;99.90
34837;DHT22;21053;50.848;4.652;2023-07-31T12:24:29;21.00;99.90
34837;DHT22;21053;50.848;4.652;2023-07-31T12:26:56;21.30;99.90
34837;DHT22;21053;50.848;4.652;2023-07-31T12:29:42;21.20;99.90
34837;DHT22;21053;50.848;4.652;2023-07-31T12:32:24;21.20;99.90
34837;DHT22;21053;50.848;4.652;2023-07-31T12:34:53;21.20;99.90
34837;DHT22;21053;50.848;4.652;2023-07-31T12:37:23;21.20;99.90
34837;DHT22;21053;50.848;4.652;2023-07-31T12:39:51;21.00;99.90
34837;DHT22;21053;50.848;4.652;2023-07-31T12:42:22;21.00;99.90
34837;DHT22;21053;50.848;4.652;2023-07-31T12:44:51;21.10;99.90
34837;DHT22;21053;50.848;4.652;2023-07-31T12:47:20;21.00;99.90
34837;DHT22;21053;50.848;4.652;2023-07-31T12:49:47;20.90;99.90
34837;DHT22;21053;50.848;4.652;2023-07-31T12:52:16;20.80;99.90
34837;DHT22;21053;50.848;4.652;2023-07-31T12:54:45;20.80;99.90
34837;DHT22;21053;50.848;4.652;2023-07-31T12:57:13;20.90;99.90
34837;DHT22;21053;50.848;4.652;2023-07-31T12:59:45;20.80;99.90
34837;DHT22;21053;50.848;4.652;2023-07-31T13:02:12;20.70;99.90
34837;DHT22;21053;50.848;4.652;2023-07-31T13:04:39;20.70;99.90
34837;DHT22;21053;50.848;4.652;2023-07-31T13:07:05;20.60;99.90
34837;DHT22;21053;50.848;4.652;2023-07-31T13:09:31;20.50;99.90
34837;DHT22;21053;50.848;4.652;2023-07-31T13:12:00;20.40;99.90
34837;DHT22;21053;50.848;4.652;2023-07-31T13:14:27;20.40;99.90
34837;DHT22;21053;50.848;4.652;2023-07-31T13:16:56;20.50;99.90
34837;DHT22;21053;50.848;4.652;2023-07-31T13:19:26;20.50;99.90
34837;DHT22;21053;50.848;4.652;2023-07-31T13:21:57;20.40;99.90
34837;DHT22;21053;50.848;4.652;2023-07-31T13:24:26;20.30;99.90
34837;DHT22;21053;50.848;4.652;2023-07-31T13:26:56;20.30;99.90
34837;DHT22;21053;50.848;4.652;2023-07-31T13:29:25;20.30;99.90
34837;DHT22;21053;50.848;4.652;2023-07-31T13:31:52;20.20;99.90
34837;DHT22;21053;50.848;4.652;2023-07-31T13:34:18;20.10;99.90
34837;DHT22;21053;50.848;4.652;2023-07-31T13:36:44;20.10;99.90
34837;DHT22;21053;50.848;4.652;2023-07-31T13:39:12;20.10;99.90
34837;DHT22;21053;50.848;4.652;2023-07-31T13:41:40;20.00;99.90
34837;DHT22;21053;50.848;4.652;2023-07-31T13:44:06;20.10;99.90
34837;DHT22;21053;50.848;4.652;2023-07-31T13:46:32;20.10;99.90
34837;DHT22;21053;50.848;4.652;2023-07-31T13:49:01;19.80;99.90
34837;DHT22;21053;50.848;4.652;2023-07-31T13:51:27;19.70;99.90
34837;DHT22;21053;50.848;4.652;2023-07-31T13:53:57;19.60;99.90
34837;DHT22;21053;50.848;4.652;2023-07-31T13:56:26;19.60;99.90
34837;DHT22;21053;50.848;4.652;2023-07-31T13:58:58;19.60;99.90
34837;DHT22;21053;50.848;4.652;2023-07-31T14:01:24;19.60;99.90
34837;DHT22;21053;50.848;4.652;2023-07-31T14:03:49;19.70;99.90
34837;DHT22;21053;50.848;4.652;2023-07-31T14:06:16;19.60;99.90
34837;DHT22;21053;50.848;4.652;2023-07-31T14:08:42;19.50;99.90
34837;DHT22;21053;50.848;4.652;2023-07-31T14:11:19;19.50;99.90
34837;DHT22;21053;50.848;4.652;2023-07-31T14:13:50;19.60;99.90
34837;DHT22;21053;50.848;4.652;2023-07-31T14:16:16;19.50;99.90
34837;DHT22;21053;50.848;4.652;2023-07-31T14:18:42;19.40;99.90
34837;DHT22;21053;50.848;4.652;2023-07-31T14:21:08;19.40;99.90
34837;DHT22;21053;50.848;4.652;2023-07-31T14:23:40;19.30;99.90
34837;DHT22;21053;50.848;4.652;2023-07-31T14:26:09;19.40;99.90
34837;DHT22;21053;50.848;4.652;2023-07-31T14:28:35;19.40;99.90
34837;DHT22;21053;50.848;4.652;2023-07-31T14:31:04;19.40;99.90
34837;DHT22;21053;50.848;4.652;2023-07-31T14:33:33;19.30;99.90
34837;DHT22;21053;50.848;4.652;2023-07-31T14:36:02;19.30;99.90
34837;DHT22;21053;50.848;4.652;2023-07-31T14:38:41;19.50;99.90
34837;DHT22;21053;50.848;4.652;2023-07-31T14:41:09;19.50;99.90
34837;DHT22;21053;50.848;4.652;2023-07-31T14:43:35;19.20;99.90
34837;DHT22;21053;50.848;4.652;2023-07-31T14:46:05;19.40;99.90
34837;DHT22;21053;50.848;4.652;2023-07-31T14:48:34;19.40;99.90
34837;DHT22;21053;50.848;4.652;2023-07-31T14:51:01;19.20;99.90
34837;DHT22;21053;50.848;4.652;2023-07-31T14:53:29;19.30;99.90
34837;DHT22;21053;50.848;4.652;2023-07-31T14:55:58;19.40;99.90
34837;DHT22;21053;50.848;4.652;2023-07-31T14:58:24;19.40;99.90
34837;DHT22;21053;50.848;4.652;2023-07-31T15:00:50;19.40;99.90
34837;DHT22;21053;50.848;4.652;2023-07-31T15:03:19;19.40;99.90
34837;DHT22;21053;50.848;4.652;2023-07-31T15:05:47;19.40;99.90
34837;DHT22;21053;50.848;4.652;2023-07-31T15:08:16;19.40;99.90
34837;DHT22;21053;50.848;4.652;2023-07-31T15:10:45;19.50;99.90
34837;DHT22;21053;50.848;4.652;2023-07-31T15:13:12;19.40;99.90
34837;DHT22;21053;50.848;4.652;2023-07-31T15:15:38;19.40;99.90
34837;DHT22;21053;50.848;4.652;2023-07-31T15:18:06;19.20;99.90
34837;DHT22;21053;50.848;4.652;2023-07-31T15:23:00;19.20;99.90
34837;DHT22;21053;50.848;4.652;2023-07-31T15:25:28;19.20;99.90
34837;DHT22;21053;50.848;4.652;2023-07-31T15:27:57;19.00;99.90
34837;DHT22;21053;50.848;4.652;2023-07-31T15:30:24;19.10;99.90
34837;DHT22;21053;50.848;4.652;2023-07-31T15:32:53;19.10;99.90
34837;DHT22;21053;50.848;4.652;2023-07-31T15:35:19;19.00;99.90
34837;DHT22;21053;50.848;4.652;2023-07-31T15:37:47;19.00;99.90
34837;DHT22;21053;50.848;4.652;2023-07-31T15:40:15;19.10;99.90
34837;DHT22;21053;50.848;4.652;2023-07-31T15:42:42;19.20;99.90
34837;DHT22;21053;50.848;4.652;2023-07-31T15:45:08;19.10;99.90
34837;DHT22;21053;50.848;4.652;2023-07-31T15:47:36;19.10;99.90
34837;DHT22;21053;50.848;4.652;2023-07-31T15:50:02;19.10;99.90
34837;DHT22;21053;50.848;4.652;2023-07-31T15:52:30;19.00;99.90
34837;DHT22;21053;50.848;4.652;2023-07-31T15:54:56;19.00;99.90
34837;DHT22;21053;50.848;4.652;2023-07-31T15:57:25;19.10;99.90
34837;DHT22;21053;50.848;4.652;2023-07-31T15:59:54;19.00;99.90
34837;DHT22;21053;50.848;4.652;2023-07-31T16:02:22;19.10;99.90
34837;DHT22;21053;50.848;4.652;2023-07-31T16:04:48;19.10;99.90
34837;DHT22;21053;50.848;4.652;2023-07-31T16:07:14;19.00;99.90
34837;DHT22;21053;50.848;4.652;2023-07-31T16:09:40;19.00;99.90
34837;DHT22;21053;50.848;4.652;2023-07-31T16:12:06;19.00;99.90
34837;DHT22;21053;50.848;4.652;2023-07-31T16:14:38;19.00;99.90
34837;DHT22;21053;50.848;4.652;2023-07-31T16:17:04;18.90;99.90
34837;DHT22;21053;50.848;4.652;2023-07-31T16:19:31;18.90;99.90
34837;DHT22;21053;50.848;4.652;2023-07-31T16:21:57;18.90;99.90
34837;DHT22;21053;50.848;4.652;2023-07-31T16:24:25;18.90;99.90
34837;DHT22;21053;50.848;4.652;2023-07-31T16:27:05;19.00;99.90
34837;DHT22;21053;50.848;4.652;2023-07-31T16:29:33;19.00;99.90
34837;DHT22;21053;50.848;4.652;2023-07-31T16:31:59;18.90;99.90
34837;DHT22;21053;50.848;4.652;2023-07-31T16:34:28;18.90;99.90
34837;DHT22;21053;50.848;4.652;2023-07-31T16:37:03;18.90;99.90
34837;DHT22;21053;50.848;4.652;2023-07-31T16:39:32;19.00;99.90